Time;durP1;ratioP1;P1;durP2;ratioP2;P2;SDS_P1;SDS_P2;PMS_P1;PMS_P2;Temp;Humidity;BMP_temperature;BMP_pressure;BME280_temperature;BME280_humidity;BME280_pressure;Samples;Min_cycle;Max_cycle;Signal;HPM_P1;HPM_P2
2022/09/20 00:00:24;;;;;;;;;;;16.10;61.90;;;;;;5044598;28;20016;-92
2022/09/20 00:02:50;;;;;;;;;;;16.00;61.90;;;;;;5056613;28;19942;-93
2022/09/20 00:05:16;;;;;;;;;;;16.00;61.90;;;;;;5047580;28;20054;-93
2022/09/20 00:07:44;;;;;;;;;;;15.90;62.30;;;;;;5036206;28;20296;-92
2022/09/20 00:10:10;;;;;;;;;;;16.00;62.00;;;;;;5036081;28;19947;-92
2022/09/20 00:12:36;;;;;;;;;;;16.00;61.60;;;;;;5036570;28;20022;-92
2022/09/20 00:15:02;;;;;;;;;;;16.10;61.20;;;;;;5036038;28;19940;-91
2022/09/20 00:17:28;;;;;;;;;;;16.10;60.70;;;;;;5035927;28;19946;-92
2022/09/20 00:19:53;;;;;;;;;;;16.20;60.50;;;;;;5036164;28;20337;-92
2022/09/20 00:22:19;;;;;;;;;;;16.20;60.50;;;;;;5036209;28;19937;-93
2022/09/20 00:24:44;;;;;;;;;;;16.10;60.50;;;;;;5035279;28;20043;-93
2022/09/20 00:27:10;;;;;;;;;;;16.10;60.30;;;;;;5036420;28;20046;-93
2022/09/20 00:29:36;;;;;;;;;;;16.10;60.40;;;;;;5036022;28;20021;-91
2022/09/20 00:32:01;;;;;;;;;;;16.10;60.10;;;;;;5036075;28;20410;-92
2022/09/20 00:37:11;;;;;;;;;;;16.00;60.20;;;;;;5035890;28;20425;-93
2022/09/20 00:39:37;;;;;;;;;;;16.00;60.30;;;;;;5035473;28;19981;-92
2022/09/20 00:42:02;;;;;;;;;;;16.00;60.20;;;;;;5035729;28;19949;-92
2022/09/20 00:44:41;;;;;;;;;;;15.90;60.10;;;;;;5045036;28;20038;-93
2022/09/20 00:47:11;;;;;;;;;;;16.00;59.80;;;;;;5055225;28;19939;-92
2022/09/20 00:49:37;;;;;;;;;;;15.90;59.70;;;;;;5035529;28;19955;-92
2022/09/20 00:52:02;;;;;;;;;;;15.90;59.30;;;;;;5035301;28;19963;-92
2022/09/20 00:54:28;;;;;;;;;;;15.90;59.30;;;;;;5035331;28;19942;-92
2022/09/20 00:56:54;;;;;;;;;;;15.90;58.80;;;;;;5035529;28;20281;-92
2022/09/20 00:59:25;;;;;;;;;;;15.90;59.00;;;;;;5035608;28;20032;-93
2022/09/20 01:01:55;;;;;;;;;;;15.90;58.90;;;;;;5035394;28;20357;-92
2022/09/20 01:04:22;;;;;;;;;;;15.90;58.30;;;;;;5036653;28;19979;-93
2022/09/20 01:06:51;;;;;;;;;;;15.80;58.40;;;;;;5055577;28;19967;-92
2022/09/20 01:09:16;;;;;;;;;;;15.80;58.20;;;;;;5044195;28;20408;-93
2022/09/20 01:11:42;;;;;;;;;;;15.80;58.30;;;;;;5035096;28;19985;-93
2022/09/20 01:14:08;;;;;;;;;;;15.80;57.90;;;;;;5035074;28;19994;-92
2022/09/20 01:16:33;;;;;;;;;;;15.80;58.30;;;;;;5035041;28;19994;-93
2022/09/20 01:19:01;;;;;;;;;;;15.80;57.90;;;;;;5035209;28;20324;-92
2022/09/20 01:21:27;;;;;;;;;;;15.80;58.10;;;;;;5034860;28;19961;-92
2022/09/20 01:24:01;;;;;;;;;;;15.80;57.80;;;;;;5035030;28;19944;-92
2022/09/20 01:26:29;;;;;;;;;;;15.70;58.20;;;;;;5035035;28;20384;-91
2022/09/20 01:29:00;;;;;;;;;;;15.70;58.10;;;;;;5034753;28;20039;-92
2022/09/20 01:31:30;;;;;;;;;;;15.60;58.30;;;;;;5035006;28;19984;-92
2022/09/20 01:34:16;;;;;;;;;;;15.50;58.60;;;;;;5034952;28;20407;-92
2022/09/20 01:36:50;;;;;;;;;;;15.50;58.90;;;;;;5034102;28;19947;-92
2022/09/20 01:39:36;;;;;;;;;;;15.40;59.00;;;;;;5034444;28;20020;-92
2022/09/20 01:42:06;;;;;;;;;;;15.30;58.90;;;;;;5003848;28;19953;-93
2022/09/20 01:44:32;;;;;;;;;;;15.30;58.90;;;;;;5037176;28;19941;-92
2022/09/20 01:47:03;;;;;;;;;;;15.30;58.90;;;;;;5048121;28;20035;-92
2022/09/20 01:49:50;;;;;;;;;;;15.30;58.80;;;;;;5034456;28;19956;-92
2022/09/20 01:52:35;;;;;;;;;;;15.20;58.50;;;;;;5034362;28;19957;-93
2022/09/20 01:55:14;;;;;;;;;;;15.20;59.00;;;;;;5037378;28;19969;-91
2022/09/20 01:57:43;;;;;;;;;;;15.10;59.10;;;;;;5054299;28;19943;-93
2022/09/20 02:00:29;;;;;;;;;;;15.00;59.10;;;;;;5054072;28;20016;-92
2022/09/20 02:02:55;;;;;;;;;;;15.00;59.70;;;;;;5014554;28;19952;-92
2022/09/20 02:05:23;;;;;;;;;;;15.00;59.30;;;;;;5032338;28;19955;-92
2022/09/20 02:07:51;;;;;;;;;;;15.00;59.30;;;;;;5016510;28;19953;-92
2022/09/20 02:10:33;;;;;;;;;;;14.90;61.40;;;;;;5051964;28;20014;-92
2022/09/20 02:13:03;;;;;;;;;;;14.80;61.90;;;;;;5052750;28;19940;-92
2022/09/20 02:15:47;;;;;;;;;;;14.60;62.20;;;;;;5034736;28;19941;-91
2022/09/20 02:18:13;;;;;;;;;;;14.40;63.20;;;;;;5054006;28;19941;-92
2022/09/20 02:20:44;;;;;;;;;;;14.30;63.80;;;;;;5043497;28;20324;-92
2022/09/20 02:23:22;;;;;;;;;;;14.10;64.30;;;;;;5034042;28;19940;-92
2022/09/20 02:26:02;;;;;;;;;;;14.10;64.10;;;;;;5033814;28;19948;-93
2022/09/20 02:28:27;;;;;;;;;;;14.10;62.20;;;;;;5033955;28;20034;-93
2022/09/20 02:31:25;;;;;;;;;;;14.20;64.30;;;;;;5033855;28;19946;-92
2022/09/20 02:33:56;;;;;;;;;;;14.20;63.50;;;;;;4984376;28;19980;-91
2022/09/20 02:36:24;;;;;;;;;;;14.10;62.30;;;;;;5042610;28;20416;-93
2022/09/20 02:39:05;;;;;;;;;;;14.20;61.50;;;;;;5039698;28;19976;-93
2022/09/20 02:41:41;;;;;;;;;;;14.10;61.60;;;;;;5028318;28;20430;-93
2022/09/20 02:44:12;;;;;;;;;;;14.10;61.30;;;;;;5023679;28;19997;-92
2022/09/20 02:46:40;;;;;;;;;;;14.20;62.00;;;;;;5033237;28;19939;-92
2022/09/20 02:49:12;;;;;;;;;;;14.20;61.80;;;;;;5033526;28;19980;-92
2022/09/20 02:51:55;;;;;;;;;;;14.10;61.60;;;;;;5033547;28;20072;-93
2022/09/20 02:54:29;;;;;;;;;;;14.10;63.10;;;;;;5033483;28;19964;-91
2022/09/20 02:56:59;;;;;;;;;;;14.20;62.30;;;;;;5033511;28;19948;-91
2022/09/20 02:59:28;;;;;;;;;;;14.20;61.00;;;;;;5041119;28;19941;-92
2022/09/20 03:02:07;;;;;;;;;;;14.20;60.70;;;;;;5034334;28;19947;-93
2022/09/20 03:04:51;;;;;;;;;;;14.20;60.70;;;;;;5033508;28;19939;-92
2022/09/20 03:07:17;;;;;;;;;;;14.20;60.90;;;;;;5033345;28;19947;-92
2022/09/20 03:09:55;;;;;;;;;;;14.20;61.00;;;;;;5015655;28;20012;-92
2022/09/20 03:12:32;;;;;;;;;;;14.20;60.80;;;;;;5033372;28;19939;-92
2022/09/20 03:15:13;;;;;;;;;;;14.20;60.90;;;;;;5033341;28;19942;-92
2022/09/20 03:17:46;;;;;;;;;;;14.20;60.60;;;;;;5015611;28;19945;-93
2022/09/20 03:20:47;;;;;;;;;;;14.30;60.70;;;;;;5039334;28;19964;-92
2022/09/20 03:23:12;;;;;;;;;;;14.20;61.00;;;;;;4953383;28;19954;-92
2022/09/20 03:25:38;;;;;;;;;;;14.20;61.00;;;;;;5016199;28;19971;-92
2022/09/20 03:28:03;;;;;;;;;;;14.20;62.10;;;;;;5033128;28;19943;-93
2022/09/20 03:30:47;;;;;;;;;;;14.20;61.50;;;;;;5033313;28;19940;-92
2022/09/20 03:33:38;;;;;;;;;;;14.30;62.50;;;;;;5033428;28;19936;-92
2022/09/20 03:36:07;;;;;;;;;;;14.30;63.60;;;;;;5033390;28;19942;-92
2022/09/20 03:38:48;;;;;;;;;;;14.20;65.00;;;;;;5033137;28;19976;-92
2022/09/20 03:41:19;;;;;;;;;;;14.10;64.50;;;;;;5015384;28;19956;-92
2022/09/20 03:43:45;;;;;;;;;;;14.10;64.90;;;;;;5033250;28;19945;-92
2022/09/20 03:46:18;;;;;;;;;;;14.00;64.80;;;;;;5033234;28;20357;-91
2022/09/20 03:49:01;;;;;;;;;;;13.90;65.50;;;;;;5014567;28;20028;-93
2022/09/20 03:51:33;;;;;;;;;;;13.90;67.20;;;;;;5013284;28;20048;-92
2022/09/20 03:54:13;;;;;;;;;;;13.80;67.50;;;;;;5029880;28;20130;-91
2022/09/20 03:56:57;;;;;;;;;;;13.60;68.40;;;;;;5032873;28;19957;-92
2022/09/20 03:59:23;;;;;;;;;;;13.50;68.40;;;;;;5040404;28;20028;-92
2022/09/20 04:02:11;;;;;;;;;;;13.40;69.50;;;;;;5036536;28;20058;-91
2022/09/20 04:04:37;;;;;;;;;;;13.30;69.00;;;;;;5035953;28;19947;-92
2022/09/20 04:07:08;;;;;;;;;;;13.30;68.90;;;;;;5036671;28;19939;-91
2022/09/20 04:09:34;;;;;;;;;;;13.30;69.20;;;;;;5036650;28;19964;-93
2022/09/20 04:12:23;;;;;;;;;;;13.20;69.10;;;;;;5036252;28;20386;-92
2022/09/20 04:14:52;;;;;;;;;;;13.10;69.30;;;;;;5036480;28;20039;-92
2022/09/20 04:17:27;;;;;;;;;;;13.00;70.00;;;;;;5016580;28;20422;-92
2022/09/20 04:19:56;;;;;;;;;;;13.00;69.60;;;;;;5018871;28;19969;-92
2022/09/20 04:22:23;;;;;;;;;;;13.00;70.10;;;;;;5056262;28;19941;-92
2022/09/20 04:24:52;;;;;;;;;;;13.00;69.70;;;;;;5056132;28;19939;-92
2022/09/20 04:27:27;;;;;;;;;;;12.90;70.10;;;;;;5050393;28;19948;-92
2022/09/20 04:29:58;;;;;;;;;;;12.90;70.70;;;;;;5022168;28;19946;-91
2022/09/20 04:32:29;;;;;;;;;;;12.80;70.60;;;;;;5056060;28;20003;-92
2022/09/20 04:38:04;;;;;;;;;;;12.80;72.00;;;;;;5055670;28;19988;-91
2022/09/20 04:40:55;;;;;;;;;;;12.40;73.80;;;;;;5055040;28;19954;-93
2022/09/20 04:43:24;;;;;;;;;;;12.30;74.70;;;;;;5035761;28;19941;-93
2022/09/20 04:45:50;;;;;;;;;;;12.20;74.80;;;;;;5048119;28;19956;-91
2022/09/20 04:48:21;;;;;;;;;;;12.20;75.10;;;;;;5034350;28;19976;-92
2022/09/20 04:51:05;;;;;;;;;;;12.20;74.50;;;;;;5043278;28;19956;-92
2022/09/20 04:53:37;;;;;;;;;;;12.20;73.40;;;;;;5041716;28;20007;-92
2022/09/20 04:56:13;;;;;;;;;;;12.00;73.90;;;;;;5035548;28;19946;-92
2022/09/20 04:58:58;;;;;;;;;;;12.00;73.70;;;;;;5017202;28;19951;-92
2022/09/20 05:01:23;;;;;;;;;;;12.10;74.20;;;;;;5031187;28;19962;-91
2022/09/20 05:04:13;;;;;;;;;;;12.30;72.70;;;;;;5046605;28;20415;-92
2022/09/20 05:07:03;;;;;;;;;;;12.40;72.40;;;;;;5027004;28;19936;-92
2022/09/20 05:09:44;;;;;;;;;;;12.60;73.10;;;;;;5034904;28;19944;-93
2022/09/20 05:12:16;;;;;;;;;;;12.80;72.60;;;;;;5034895;28;19946;-92
2022/09/20 05:14:50;;;;;;;;;;;12.90;70.50;;;;;;5034961;28;19941;-91
2022/09/20 05:17:16;;;;;;;;;;;12.90;69.00;;;;;;5034844;28;19946;-93
2022/09/20 05:20:02;;;;;;;;;;;13.00;68.00;;;;;;5034726;28;19993;-92
2022/09/20 05:22:46;;;;;;;;;;;13.00;67.60;;;;;;5034544;28;19968;-92
2022/09/20 05:25:21;;;;;;;;;;;13.20;68.00;;;;;;5031019;28;19947;-92
2022/09/20 05:27:46;;;;;;;;;;;13.30;66.80;;;;;;5034388;28;19962;-93
2022/09/20 05:30:22;;;;;;;;;;;13.30;65.90;;;;;;5012435;28;20367;-93
2022/09/20 05:32:51;;;;;;;;;;;13.40;65.60;;;;;;5032551;28;20074;-92
2022/09/20 05:35:37;;;;;;;;;;;13.40;65.80;;;;;;5034152;28;20028;-91
2022/09/20 05:38:05;;;;;;;;;;;13.50;65.20;;;;;;5032921;28;19955;-91
2022/09/20 05:40:34;;;;;;;;;;;13.50;64.70;;;;;;5033517;28;19969;-91
2022/09/20 05:43:10;;;;;;;;;;;13.60;64.40;;;;;;5030988;28;20340;-92
2022/09/20 05:45:46;;;;;;;;;;;13.70;64.90;;;;;;5033360;28;19954;-92
2022/09/20 05:48:23;;;;;;;;;;;13.70;65.90;;;;;;5033699;28;19958;-92
2022/09/20 05:51:02;;;;;;;;;;;13.60;67.80;;;;;;5033712;28;19962;-91
2022/09/20 05:53:40;;;;;;;;;;;13.60;68.50;;;;;;5035412;28;20320;-91
2022/09/20 05:56:06;;;;;;;;;;;13.70;68.40;;;;;;5012064;28;19951;-92
2022/09/20 05:58:50;;;;;;;;;;;13.80;66.80;;;;;;5032594;28;19948;-92
2022/09/20 06:01:20;;;;;;;;;;;14.00;65.40;;;;;;5028207;28;20007;-90
2022/09/20 06:03:53;;;;;;;;;;;14.10;63.70;;;;;;5031766;28;20029;-89
2022/09/20 06:06:27;;;;;;;;;;;14.20;63.30;;;;;;5033735;28;19969;-90
2022/09/20 06:08:56;;;;;;;;;;;14.40;62.40;;;;;;5033708;28;20334;-90
2022/09/20 06:11:40;;;;;;;;;;;14.40;62.20;;;;;;5034030;28;19999;-90
2022/09/20 06:14:09;;;;;;;;;;;14.60;62.10;;;;;;5019482;28;19953;-89
2022/09/20 06:16:46;;;;;;;;;;;14.80;61.00;;;;;;5034224;28;20292;-90
2022/09/20 06:19:31;;;;;;;;;;;14.80;61.50;;;;;;5047609;28;19954;-90
2022/09/20 06:22:00;;;;;;;;;;;14.80;61.50;;;;;;5034484;28;20076;-92
2022/09/20 06:24:36;;;;;;;;;;;14.80;61.60;;;;;;5016350;28;19952;-91
2022/09/20 06:27:07;;;;;;;;;;;14.90;61.80;;;;;;5034400;28;20310;-91
2022/09/20 06:29:34;;;;;;;;;;;14.90;61.20;;;;;;5031302;28;20048;-90
2022/09/20 06:32:00;;;;;;;;;;;15.00;61.00;;;;;;5033173;28;20082;-91
2022/09/20 06:34:26;;;;;;;;;;;15.00;60.60;;;;;;5032799;28;19979;-90
2022/09/20 06:42:43;;;;;;;;;;;15.10;61.30;;;;;;5027915;28;21678;-92
2022/09/20 06:45:08;;;;;;;;;;;15.30;59.50;;;;;;5030842;28;20044;-91
2022/09/20 06:47:35;;;;;;;;;;;15.30;60.30;;;;;;5030913;28;20394;-90
2022/09/20 06:50:00;;;;;;;;;;;15.40;60.20;;;;;;5036169;28;19953;-91
2022/09/20 06:52:26;;;;;;;;;;;15.50;59.00;;;;;;5012521;28;19966;-91
2022/09/20 06:54:53;;;;;;;;;;;15.60;58.50;;;;;;5002787;28;19952;-92
2022/09/20 06:57:22;;;;;;;;;;;15.60;58.70;;;;;;5009053;28;19946;-89
2022/09/20 06:59:48;;;;;;;;;;;15.70;58.60;;;;;;5009137;28;20396;-91
2022/09/20 07:02:13;;;;;;;;;;;15.80;57.00;;;;;;5009772;28;20031;-92
2022/09/20 07:04:39;;;;;;;;;;;15.80;56.90;;;;;;5009305;28;19959;-92
2022/09/20 07:07:05;;;;;;;;;;;15.90;56.20;;;;;;5005734;28;19991;-92
2022/09/20 07:09:30;;;;;;;;;;;16.00;56.50;;;;;;5007942;28;19999;-90
2022/09/20 07:11:57;;;;;;;;;;;16.10;56.60;;;;;;5010226;28;19994;-91
2022/09/20 07:14:24;;;;;;;;;;;16.10;57.00;;;;;;5009244;28;19987;-90
2022/09/20 07:16:49;;;;;;;;;;;16.20;56.20;;;;;;5008693;28;19945;-91
2022/09/20 07:19:15;;;;;;;;;;;16.30;54.50;;;;;;5008101;28;19945;-91
2022/09/20 07:21:40;;;;;;;;;;;16.40;54.30;;;;;;5008292;28;19967;-91
2022/09/20 07:24:06;;;;;;;;;;;16.50;54.30;;;;;;5007952;28;19997;-92
2022/09/20 07:26:32;;;;;;;;;;;16.60;54.30;;;;;;5009238;28;20552;-91
2022/09/20 07:28:58;;;;;;;;;;;16.60;53.20;;;;;;5002913;28;20484;-92
2022/09/20 07:31:24;;;;;;;;;;;16.70;52.90;;;;;;5007313;28;19967;-91
2022/09/20 07:33:50;;;;;;;;;;;16.80;52.40;;;;;;5001239;28;20021;-92
2022/09/20 07:36:16;;;;;;;;;;;16.80;52.50;;;;;;5010897;28;19988;-92
2022/09/20 07:38:42;;;;;;;;;;;16.90;51.80;;;;;;5015872;28;19987;-93
2022/09/20 07:41:08;;;;;;;;;;;17.00;51.90;;;;;;5015849;28;19974;-92
2022/09/20 07:43:34;;;;;;;;;;;17.00;51.80;;;;;;5014224;28;19942;-92
2022/09/20 07:45:59;;;;;;;;;;;17.10;52.40;;;;;;5013167;28;19953;-91
2022/09/20 07:48:26;;;;;;;;;;;17.20;51.40;;;;;;5012444;28;19947;-92
2022/09/20 07:50:52;;;;;;;;;;;17.30;51.70;;;;;;5010931;28;20019;-92
2022/09/20 07:53:18;;;;;;;;;;;17.30;51.10;;;;;;5010767;28;20541;-91
2022/09/20 07:55:54;;;;;;;;;;;17.40;51.20;;;;;;5010141;28;19956;-92
2022/09/20 07:58:20;;;;;;;;;;;17.60;50.40;;;;;;5007170;28;21767;-91
2022/09/20 08:00:50;;;;;;;;;;;17.80;49.20;;;;;;5011172;28;20057;-92
2022/09/20 08:03:15;;;;;;;;;;;17.80;50.00;;;;;;5011675;28;19944;-90
2022/09/20 08:05:42;;;;;;;;;;;17.90;48.60;;;;;;5008921;28;20041;-91
2022/09/20 08:08:08;;;;;;;;;;;18.00;49.10;;;;;;5010488;28;19964;-92
2022/09/20 08:10:33;;;;;;;;;;;18.00;50.30;;;;;;5008885;28;19949;-92
2022/09/20 08:12:59;;;;;;;;;;;18.00;50.10;;;;;;5010049;28;19941;-91
2022/09/20 08:15:25;;;;;;;;;;;18.10;49.60;;;;;;5009402;28;19947;-92
2022/09/20 08:17:50;;;;;;;;;;;18.10;49.70;;;;;;5008005;28;19948;-93
2022/09/20 08:20:17;;;;;;;;;;;18.10;49.10;;;;;;5012591;28;20419;-92
2022/09/20 08:22:43;;;;;;;;;;;18.10;48.90;;;;;;5012055;28;19948;-91
2022/09/20 08:25:09;;;;;;;;;;;18.20;48.60;;;;;;5009440;28;19949;-91
2022/09/20 08:27:35;;;;;;;;;;;18.30;49.10;;;;;;5010599;28;19943;-91
2022/09/20 08:30:00;;;;;;;;;;;18.30;50.10;;;;;;5008608;28;20425;-93
2022/09/20 08:32:26;;;;;;;;;;;18.30;49.10;;;;;;5009336;28;19994;-91
2022/09/20 08:34:51;;;;;;;;;;;18.30;48.50;;;;;;5009784;28;20310;-92
2022/09/20 08:37:18;;;;;;;;;;;18.40;48.10;;;;;;5010120;28;19981;-92
2022/09/20 08:39:43;;;;;;;;;;;18.40;49.00;;;;;;5016629;28;19970;-92
2022/09/20 08:42:23;;;;;;;;;;;18.50;49.00;;;;;;5010437;28;19950;-92
2022/09/20 08:44:52;;;;;;;;;;;18.60;48.20;;;;;;5008196;28;19997;-92
2022/09/20 08:47:17;;;;;;;;;;;18.80;48.50;;;;;;5006479;28;19976;-93
2022/09/20 08:49:43;;;;;;;;;;;18.80;48.00;;;;;;5009931;28;20407;-92
2022/09/20 08:52:14;;;;;;;;;;;18.90;47.90;;;;;;5012253;28;19998;-92
2022/09/20 08:54:42;;;;;;;;;;;18.90;47.50;;;;;;5009399;28;19983;-92
2022/09/20 08:57:15;;;;;;;;;;;18.90;47.80;;;;;;5009747;28;19980;-92
2022/09/20 08:59:41;;;;;;;;;;;19.00;48.50;;;;;;5009255;28;19953;-93
2022/09/20 09:02:14;;;;;;;;;;;19.10;49.10;;;;;;5009213;28;19970;-92
2022/09/20 09:04:41;;;;;;;;;;;19.10;48.10;;;;;;5009820;28;20039;-92
2022/09/20 09:07:10;;;;;;;;;;;19.20;48.00;;;;;;5006483;28;19942;-92
2022/09/20 09:09:40;;;;;;;;;;;19.20;47.70;;;;;;5006336;28;19976;-92
2022/09/20 09:12:05;;;;;;;;;;;19.30;47.60;;;;;;5009193;28;19966;-92
2022/09/20 09:14:48;;;;;;;;;;;19.30;48.30;;;;;;5011565;28;20321;-93
2022/09/20 09:17:18;;;;;;;;;;;19.40;49.00;;;;;;5005108;28;19952;-92
2022/09/20 09:19:43;;;;;;;;;;;19.50;49.30;;;;;;5010217;28;19953;-92
2022/09/20 09:22:09;;;;;;;;;;;19.60;49.50;;;;;;5011160;28;19949;-92
2022/09/20 09:24:35;;;;;;;;;;;19.60;49.60;;;;;;5009629;28;19944;-91
2022/09/20 09:27:27;;;;;;;;;;;19.80;50.20;;;;;;5009093;28;19956;-92
2022/09/20 09:29:54;;;;;;;;;;;19.80;48.20;;;;;;5010592;28;20046;-92
2022/09/20 09:32:28;;;;;;;;;;;19.90;49.90;;;;;;5007724;28;20031;-93
2022/09/20 09:34:53;;;;;;;;;;;20.00;50.40;;;;;;5009947;28;19994;-92
2022/09/20 09:37:29;;;;;;;;;;;20.10;53.60;;;;;;5001369;28;19954;-92
2022/09/20 09:40:04;;;;;;;;;;;20.20;49.70;;;;;;5002368;28;19999;-91
2022/09/20 09:42:30;;;;;;;;;;;20.30;48.80;;;;;;5004215;28;20041;-92
2022/09/20 09:45:12;;;;;;;;;;;20.30;48.40;;;;;;5010740;28;19974;-92
2022/09/20 09:47:37;;;;;;;;;;;20.40;49.20;;;;;;5009893;28;19986;-91
2022/09/20 09:50:03;;;;;;;;;;;20.50;49.60;;;;;;5017222;28;19980;-92
2022/09/20 09:52:32;;;;;;;;;;;20.60;49.30;;;;;;5019578;28;19965;-91
2022/09/20 09:54:58;;;;;;;;;;;20.70;50.80;;;;;;5011131;28;19986;-91
2022/09/20 09:57:24;;;;;;;;;;;20.80;51.30;;;;;;5005070;28;19965;-92
2022/09/20 10:00:12;;;;;;;;;;;20.70;49.90;;;;;;5007276;28;19948;-91
2022/09/20 10:02:47;;;;;;;;;;;20.80;51.80;;;;;;5008878;28;20391;-93
2022/09/20 10:05:31;;;;;;;;;;;20.80;50.70;;;;;;5004153;28;19945;-93
2022/09/20 10:08:15;;;;;;;;;;;20.80;51.30;;;;;;5009314;28;20467;-92
2022/09/20 10:10:59;;;;;;;;;;;20.90;50.90;;;;;;5010241;28;19948;-92
2022/09/20 10:13:25;;;;;;;;;;;20.90;48.80;;;;;;5009867;28;19945;-92
2022/09/20 10:16:05;;;;;;;;;;;20.90;49.80;;;;;;5009590;28;19959;-91
2022/09/20 10:19:06;;;;;;;;;;;21.00;48.20;;;;;;4991177;28;19948;-92
2022/09/20 10:21:47;;;;;;;;;;;21.00;47.70;;;;;;5007698;28;19967;-92
2022/09/20 10:24:29;;;;;;;;;;;20.90;49.30;;;;;;5008002;28;19952;-92
2022/09/20 10:27:07;;;;;;;;;;;20.90;48.80;;;;;;5003847;28;19989;-92
2022/09/20 10:29:38;;;;;;;;;;;21.00;50.20;;;;;;4991525;28;20042;-92
2022/09/20 10:32:10;;;;;;;;;;;21.20;47.70;;;;;;5003925;28;20401;-92
2022/09/20 10:34:42;;;;;;;;;;;21.20;46.80;;;;;;5002929;28;19951;-92
2022/09/20 10:37:13;;;;;;;;;;;21.20;47.90;;;;;;4990891;28;19943;-93
2022/09/20 10:39:42;;;;;;;;;;;21.30;47.00;;;;;;4990796;28;20531;-92
2022/09/20 10:45:22;;;;;;;;;;;21.50;49.10;;;;;;5001532;28;19988;-92
2022/09/20 10:47:48;;;;;;;;;;;21.70;48.30;;;;;;5009634;28;19946;-92
2022/09/20 10:50:28;;;;;;;;;;;21.80;47.60;;;;;;5010227;28;20045;-92
2022/09/20 10:52:53;;;;;;;;;;;22.10;49.00;;;;;;5006144;28;19941;-92
2022/09/20 10:55:24;;;;;;;;;;;22.30;44.60;;;;;;4998394;28;19946;-93
2022/09/20 10:57:49;;;;;;;;;;;22.40;43.30;;;;;;4991069;28;19942;-92
2022/09/20 11:00:15;;;;;;;;;;;22.60;43.80;;;;;;4990884;28;19991;-91
2022/09/20 11:02:50;;;;;;;;;;;22.70;44.40;;;;;;5005089;28;20003;-92
2022/09/20 11:05:19;;;;;;;;;;;22.80;44.10;;;;;;5009839;28;19953;-92
2022/09/20 11:07:57;;;;;;;;;;;22.90;42.40;;;;;;5001256;28;19947;-91
2022/09/20 11:10:38;;;;;;;;;;;22.80;43.00;;;;;;5013822;28;19951;-92
2022/09/20 11:13:19;;;;;;;;;;;22.80;44.80;;;;;;5011503;28;19951;-92
2022/09/20 11:15:47;;;;;;;;;;;23.00;44.70;;;;;;5012024;28;19950;-92
2022/09/20 11:18:28;;;;;;;;;;;23.10;44.00;;;;;;5011410;28;19946;-91
2022/09/20 11:21:02;;;;;;;;;;;23.10;44.80;;;;;;5010282;28;20420;-92
2022/09/20 11:23:47;;;;;;;;;;;23.00;44.30;;;;;;5012255;28;19958;-91
2022/09/20 11:26:20;;;;;;;;;;;23.20;45.10;;;;;;5012592;28;20000;-91
2022/09/20 11:28:48;;;;;;;;;;;22.90;46.70;;;;;;5010883;28;19952;-92
2022/09/20 11:31:13;;;;;;;;;;;22.60;47.40;;;;;;5008818;28;20044;-93
2022/09/20 11:33:44;;;;;;;;;;;22.80;46.10;;;;;;5004707;28;20569;-92
2022/09/20 11:36:14;;;;;;;;;;;22.90;45.90;;;;;;5013360;28;19950;-91
2022/09/20 11:38:48;;;;;;;;;;;23.00;43.30;;;;;;5001982;28;19976;-91
2022/09/20 11:41:20;;;;;;;;;;;23.20;43.60;;;;;;5013146;28;19973;-92
2022/09/20 11:43:47;;;;;;;;;;;23.50;44.40;;;;;;5010842;28;19945;-91
2022/09/20 11:46:42;;;;;;;;;;;23.90;42.40;;;;;;5008802;28;20313;-91
2022/09/20 11:49:14;;;;;;;;;;;24.20;41.00;;;;;;5010157;28;19948;-90
2022/09/20 11:51:48;;;;;;;;;;;23.90;42.60;;;;;;5001925;28;20056;-90
2022/09/20 11:54:36;;;;;;;;;;;23.70;43.70;;;;;;5004080;28;19952;-91
2022/09/20 11:57:02;;;;;;;;;;;23.90;43.20;;;;;;5007479;28;19959;-92
2022/09/20 11:59:27;;;;;;;;;;;24.10;41.60;;;;;;5009217;28;19949;-91
2022/09/20 12:01:55;;;;;;;;;;;24.30;40.90;;;;;;5004359;28;20057;-91
2022/09/20 12:04:25;;;;;;;;;;;25.00;40.00;;;;;;5016365;28;19999;-91
2022/09/20 12:06:59;;;;;;;;;;;25.60;38.20;;;;;;5003759;28;19952;-92
2022/09/20 12:09:28;;;;;;;;;;;26.10;39.30;;;;;;5001646;28;20426;-92
2022/09/20 12:11:54;;;;;;;;;;;26.50;39.80;;;;;;5007904;28;19947;-91
2022/09/20 12:14:26;;;;;;;;;;;27.00;40.40;;;;;;5005149;28;19966;-92
2022/09/20 12:16:52;;;;;;;;;;;27.30;38.50;;;;;;5007782;28;19954;-92
2022/09/20 12:19:35;;;;;;;;;;;27.90;36.40;;;;;;5008525;28;19946;-91
2022/09/20 12:22:02;;;;;;;;;;;28.70;34.30;;;;;;5007821;28;20047;-92
2022/09/20 12:24:35;;;;;;;;;;;28.50;34.50;;;;;;5017076;28;19954;-91
2022/09/20 12:27:03;;;;;;;;;;;26.80;35.70;;;;;;5012016;28;20049;-91
2022/09/20 12:29:31;;;;;;;;;;;26.40;37.20;;;;;;5011980;28;19945;-92
2022/09/20 12:31:58;;;;;;;;;;;25.90;38.60;;;;;;5010258;28;19979;-91
2022/09/20 12:34:24;;;;;;;;;;;24.90;39.90;;;;;;5009764;28;19940;-91
2022/09/20 12:36:53;;;;;;;;;;;24.20;40.40;;;;;;5010689;28;20333;-91
2022/09/20 12:39:18;;;;;;;;;;;24.00;41.70;;;;;;5011355;28;19972;-91
2022/09/20 12:41:45;;;;;;;;;;;24.90;40.50;;;;;;5053613;28;19975;-91
2022/09/20 12:44:20;;;;;;;;;;;25.40;39.40;;;;;;5007765;28;19954;-91
2022/09/20 12:46:52;;;;;;;;;;;26.00;39.10;;;;;;5009056;28;19946;-92
2022/09/20 12:55:09;;;;;;;;;;;31.10;29.90;;;;;;5001228;28;20445;-92
2022/09/20 12:57:34;;;;;;;;;;;30.50;30.30;;;;;;5008569;28;19939;-91
2022/09/20 13:00:01;;;;;;;;;;;29.20;30.70;;;;;;5008689;28;19998;-91
2022/09/20 13:02:43;;;;;;;;;;;28.60;32.50;;;;;;5009542;28;20399;-92
2022/09/20 13:05:28;;;;;;;;;;;28.70;32.00;;;;;;5011292;28;20485;-91
2022/09/20 13:07:59;;;;;;;;;;;28.80;31.30;;;;;;5010527;28;20039;-92
2022/09/20 13:10:28;;;;;;;;;;;29.40;33.50;;;;;;5006818;28;20009;-92
2022/09/20 13:12:59;;;;;;;;;;;30.90;31.20;;;;;;5010684;28;19948;-92
2022/09/20 13:15:25;;;;;;;;;;;32.20;28.30;;;;;;5009428;28;19945;-92
2022/09/20 13:17:52;;;;;;;;;;;32.70;28.10;;;;;;5007597;28;19964;-92
2022/09/20 13:20:21;;;;;;;;;;;32.50;28.10;;;;;;5006465;28;19975;-92
2022/09/20 13:22:47;;;;;;;;;;;31.50;28.80;;;;;;5010045;28;20144;-92
2022/09/20 13:25:14;;;;;;;;;;;32.10;28.60;;;;;;5009405;28;20074;-92
2022/09/20 13:27:40;;;;;;;;;;;33.10;27.70;;;;;;5006771;28;19956;-93
2022/09/20 13:30:08;;;;;;;;;;;33.50;26.90;;;;;;5005959;28;19961;-92
2022/09/20 13:32:34;;;;;;;;;;;34.40;25.80;;;;;;5002752;28;19941;-92
2022/09/20 13:35:09;;;;;;;;;;;33.30;27.40;;;;;;5010312;28;20321;-91
2022/09/20 13:37:35;;;;;;;;;;;32.80;28.20;;;;;;5006787;28;19945;-91
2022/09/20 13:40:01;;;;;;;;;;;32.80;27.60;;;;;;5010145;28;20150;-92
2022/09/20 13:42:28;;;;;;;;;;;32.60;28.40;;;;;;5011124;28;20461;-92
2022/09/20 13:44:56;;;;;;;;;;;32.50;28.20;;;;;;5011321;28;19984;-92
2022/09/20 13:47:23;;;;;;;;;;;33.20;27.90;;;;;;5009361;28;19955;-92
2022/09/20 13:49:49;;;;;;;;;;;33.70;27.00;;;;;;5008759;28;19949;-92
2022/09/20 13:52:21;;;;;;;;;;;33.10;26.30;;;;;;5009614;28;19948;-92
2022/09/20 13:54:47;;;;;;;;;;;33.20;27.20;;;;;;5012243;28;20037;-92
2022/09/20 13:57:17;;;;;;;;;;;34.00;26.20;;;;;;5010136;28;19957;-92
2022/09/20 13:59:44;;;;;;;;;;;33.70;27.20;;;;;;5010100;28;19948;-93
2022/09/20 14:02:29;;;;;;;;;;;33.20;27.00;;;;;;5009409;28;20328;-92
2022/09/20 14:04:56;;;;;;;;;;;32.70;28.40;;;;;;5010000;28;19942;-92
2022/09/20 14:07:24;;;;;;;;;;;32.70;28.00;;;;;;5007631;28;19949;-92
2022/09/20 14:09:50;;;;;;;;;;;32.90;27.30;;;;;;5005059;28;19947;-91
2022/09/20 14:12:17;;;;;;;;;;;32.40;28.20;;;;;;5037113;28;19948;-93
2022/09/20 14:14:42;;;;;;;;;;;32.30;28.80;;;;;;5009630;28;20033;-92
2022/09/20 14:17:10;;;;;;;;;;;32.60;28.10;;;;;;5003121;28;20007;-93
2022/09/20 14:19:40;;;;;;;;;;;32.60;28.00;;;;;;5006233;28;20045;-92
2022/09/20 14:22:05;;;;;;;;;;;33.00;28.70;;;;;;5009496;28;19963;-92
2022/09/20 14:24:36;;;;;;;;;;;33.90;27.40;;;;;;5010034;28;19951;-91
2022/09/20 14:27:20;;;;;;;;;;;32.80;26.50;;;;;;5009763;28;19959;-91
2022/09/20 14:38:43;;;;;;;;;;;30.70;27.80;;;;;;5050799;27;2119323;-92
2022/09/20 14:41:08;;;;;;;;;;;32.10;28.80;;;;;;5115343;28;19946;-92
2022/09/20 14:43:35;;;;;;;;;;;31.50;30.70;;;;;;5116224;28;20054;-92
2022/09/20 14:46:02;;;;;;;;;;;31.60;30.70;;;;;;5116394;28;20029;-91
2022/09/20 14:48:32;;;;;;;;;;;31.00;29.80;;;;;;5117537;28;19950;-92
2022/09/20 14:51:27;;;;;;;;;;;31.20;29.30;;;;;;5120007;28;21320;-91
2022/09/20 14:54:04;;;;;;;;;;;30.20;31.90;;;;;;5112024;28;19943;-92
2022/09/20 14:56:34;;;;;;;;;;;30.50;31.40;;;;;;5121733;28;20485;-91
2022/09/20 14:59:04;;;;;;;;;;;29.80;31.60;;;;;;5105474;28;19951;-92
2022/09/20 15:01:30;;;;;;;;;;;29.20;32.30;;;;;;5115355;28;19988;-92
2022/09/20 15:03:56;;;;;;;;;;;29.10;32.90;;;;;;5123082;28;20202;-92
2022/09/20 15:06:22;;;;;;;;;;;28.80;33.80;;;;;;5108016;28;19953;-92
2022/09/20 15:08:47;;;;;;;;;;;29.00;33.80;;;;;;5116213;28;19937;-92